Crockett, KY

11:03 AM EDT on September 20, 2014 (GMT -0400)
Tri-State / Ferguson | Change Station
CLOSE
Current Station
Airport
Location: Huntington,
Elevation: 837 ft
Nearby Weather Stations

Elev 837 ft 38.37 °N, 82.56 °W | Updated 1 hour ago

Partly Cloudy
Partly Cloudy
67 °F
Feels Like 67 °F
N
5
Wind Variable Wind from SSW

Today
High -- | Low -- °F
--% Chance of Precip.
Yesterday
High -- | Low -- °F
Precip. -- in
7:18 AM 7:32 PM
Waning Crescent, 12% visible
Pressure 30.14 in
Visibility 10.0 miles
Clouds Scattered Clouds 5500 ft
Mostly Cloudy 7000 ft
Dew Point 61 °F
Humidity 81%
Rainfall 0.00 in
Snow Depth Not available.
UV 2 out of 12
Pollen 5.30 out of 12
Air Quality Not available.
Flu Activity Not available.
METAR KHTS 201351Z AUTO 21004KT 10SM SCT055 BKN070 19/16 A3015 RMK AO2 SLP206 T01940161 TSNO

More Conditions Fewer Conditions

Pressure 30.14 in
Visibility 10.0 miles
Clouds Scattered Clouds 5500 ft
Mostly Cloudy 7000 ft
Dew Point 61 °F
Humidity 81%
Rainfall 0.00 in
Snow Depth Not available.
UV 2 out of 12
Pollen 5.30 out of 12
Air Quality Not available.
Flu Activity Not available.
METAR KHTS 201351Z AUTO 21004KT 10SM SCT055 BKN070 19/16 A3015 RMK AO2 SLP206 T01940161 TSNO

More Conditions Fewer Conditions

10-Day Weather Forecast

Almanac

Astronomy

Sep. 20, 2014 Rise Set
Actual Time 7:18 AM EDT 7:32 PM EDT
Civil Twilight 6:52 AM EDT 7:58 PM EDT
Nautical Twilight 6:21 AM EDT 8:29 PM EDT
Astronomical Twilight 5:49 AM EDT 9:00 PM EDT
Moon 3:59 AM EDT 5:33 PM EDT
Length of Visible Light 13h 06m
Length of Day
12h 14m
Tomorrow will be 2m 25s shorter.
Waning Crescent, 12% of the Moon is Illuminated
Today
Waning Crescent
Sep 24
New
Oct 1
First Quarter
Oct 8
Full
Oct 15
Last Quarter

Today's Extremes

State Highs State Lows

Community

WunderPhotos

Upload Photos

1,754,876 photos uploaded!

WunderBlogs® & News

Nearby

Snow Depth

Station Depth Elevation
No new snow has been reported.

Earthquake Activity

City Distance Mag. Time & Date
No recent earthquake activity has been reported nearby.
Minimum magnitude displayed is 2.5.

Coastal Water Temperatures

Place Temperature
No Stations Reporting

Nearby Weather Stations